首页
METAR-TAF:

METAR-TAF

机场 :

道森, 育康省, 加拿大

纬度: 64-03N, 经度: 139-08W, 海拔: 370米

当前天气观测

该预报发布于51分钟前的16:14 UTC
静风
温度 13°C
湿度 94%
气压 1008 hPa
能見度: 32.2公里
少量云层高于500英尺
多云层高于3800英尺
多云层高于8400英尺

METAR: CYDA 041614Z 00000KT 20SM FEW005 BKN038 BKN084 13/12 A2977 RMK ST2SC3AC2 SLP092 DENSITY ALT 1400FT

时间: 10:05 (17:05 UTC)

预报

该预报发布于2小时和25分钟前的14:40 UTC
预报有效从04日的 15点(UTC)到 05日的 03点(UTC)
风速3节,风向多变
能見度: 10公里
少量云层高于1500英尺
多云层高于3000英尺
短暂存在
从 04日的 15点(UTC)到 04日的 18点(UTC)
能見度: 8.0公里
多云层高于1500英尺
小雨, 轻雾
从 04日的 1800点(UTC)
风速7节,风向西转西南
能見度: 10公里
少量云层高于3000英尺
多云层高于5000英尺
短暂存在
从 04日的 18点(UTC)到 05日的 03点(UTC)
能見度: 10公里
小阵雨
几率 30%
从 04日的 18点(UTC)到 05日的 03点(UTC)
风速15节,风向多变,有时为25节阵风
能見度: 8.0公里
多云层高于3000英尺, 积雨云.
雷暴, 雨

TAF: CYDA 041440Z 0415/0503 VRB03KT P6SM FEW015 BKN030 TEMPO 0415/0418 5SM -RA BR BKN015 FM041800 24007KT P6SM FEW030 BKN050 TEMPO 0418/0503 P6SM -SHRA PROB30 0418/0503 VRB15G25KT 5SM TSRA BKN030CB RMK NXT FCST BY 042100Z

超过4000个机场的气象观测和天气预报(METAR&TAF报告)。

可查询的气象台以黄色和红色小点在地图上表示。

将鼠标移到小点上方,可查看气象台名称。

然后点击查看天气观测和预报。

如需切换地图:点击带黑十字的绿色按钮放大地图;点击带横线的绿色按钮缩小地图;或者点击绿色箭头查看邻近地区的地图。


METAR-TAF: